createdAt,value
2023-03-12T03:59:11.228Z,1004.88
2023-03-12T04:00:11.172Z,1004.89
2023-03-12T04:01:11.155Z,1004.88
2023-03-12T04:02:11.154Z,1004.88
2023-03-12T04:03:11.156Z,1004.84
2023-03-12T04:04:11.160Z,1004.87
2023-03-12T04:05:11.240Z,1004.87
2023-03-12T04:06:11.116Z,1004.83
2023-03-12T04:07:11.097Z,1004.81
2023-03-12T04:08:11.125Z,1004.74
2023-03-12T04:09:11.100Z,1004.74
2023-03-12T04:10:11.098Z,1004.73
2023-03-12T04:11:11.089Z,1004.72
2023-03-12T04:12:11.105Z,1004.73
2023-03-12T04:13:11.069Z,1004.75
2023-03-12T04:14:11.052Z,1004.77
2023-03-12T04:15:11.083Z,1004.76
2023-03-12T04:16:11.164Z,1004.75
2023-03-12T04:17:11.070Z,1004.74
2023-03-12T04:18:11.063Z,1004.70
2023-03-12T04:19:11.036Z,1004.71
2023-03-12T04:20:11.030Z,1004.70
2023-03-12T04:21:11.034Z,1004.69
2023-03-12T04:22:11.039Z,1004.69
2023-03-12T04:23:11.010Z,1004.66
2023-03-12T04:24:11.007Z,1004.62
2023-03-12T04:25:11.012Z,1004.60
2023-03-12T04:26:11.004Z,1004.61
2023-03-12T04:27:11.031Z,1004.60
2023-03-12T04:28:10.988Z,1004.59
2023-03-12T04:29:10.980Z,1004.57
2023-03-12T04:30:11.020Z,1004.56
2023-03-12T04:31:11.044Z,1004.57
2023-03-12T04:32:10.984Z,1004.54
2023-03-12T04:33:10.972Z,1004.55
2023-03-12T04:34:13.327Z,1004.57
2023-03-12T04:35:10.964Z,1004.58
2023-03-12T04:36:11.069Z,1004.60
2023-03-12T04:37:10.950Z,1004.55
2023-03-12T04:38:10.939Z,1004.56
2023-03-12T04:39:10.953Z,1004.55
2023-03-12T04:40:10.936Z,1004.58
2023-03-12T04:41:10.950Z,1004.52
2023-03-12T04:42:10.925Z,1004.52
2023-03-12T04:43:10.975Z,1004.47
2023-03-12T04:44:12.855Z,1004.51
2023-03-12T04:45:10.926Z,1004.48
2023-03-12T04:46:11.012Z,1004.47
2023-03-12T04:47:10.982Z,1004.50
2023-03-12T04:48:10.919Z,1004.51
2023-03-12T04:49:10.928Z,1004.49
2023-03-12T04:50:10.918Z,1004.49
2023-03-12T04:51:10.894Z,1004.46
2023-03-12T04:52:10.897Z,1004.48
2023-03-12T04:53:10.918Z,1004.45
2023-03-12T04:54:10.896Z,1004.42
2023-03-12T04:55:10.890Z,1004.44
2023-03-12T04:56:10.865Z,1004.40
2023-03-12T04:57:10.876Z,1004.37
2023-03-12T04:58:10.873Z,1004.38
2023-03-12T04:59:10.884Z,1004.34
2023-03-12T05:00:10.883Z,1004.35
2023-03-12T05:01:10.850Z,1004.31
2023-03-12T05:02:10.847Z,1004.32
2023-03-12T05:03:10.979Z,1004.26
2023-03-12T05:04:10.888Z,1004.29
2023-03-12T05:05:10.855Z,1004.29
2023-03-12T05:06:10.834Z,1004.32
2023-03-12T05:07:10.829Z,1004.31
2023-03-12T05:08:10.834Z,1004.28
2023-03-12T05:09:10.817Z,1004.21
2023-03-12T05:10:10.816Z,1004.22
2023-03-12T05:11:10.806Z,1004.18
2023-03-12T05:12:10.807Z,1004.17
2023-03-12T05:13:10.810Z,1004.15
2023-03-12T05:14:10.820Z,1004.13
2023-03-12T05:15:10.780Z,1004.13
2023-03-12T05:16:10.849Z,1004.09
2023-03-12T05:17:10.791Z,1004.05
2023-03-12T05:18:10.781Z,1004.06
2023-03-12T05:19:10.788Z,1004.05
2023-03-12T05:20:10.772Z,1004.00
2023-03-12T05:21:10.785Z,1003.99
2023-03-12T05:22:10.781Z,1003.97
2023-03-12T05:23:10.755Z,1003.95
2023-03-12T05:24:10.742Z,1003.91
2023-03-12T05:25:10.793Z,1003.96
2023-03-12T05:26:10.748Z,1003.94
2023-03-12T05:27:10.727Z,1003.96
2023-03-12T05:28:10.730Z,1003.96
2023-03-12T05:29:10.737Z,1004.02
2023-03-12T05:30:10.721Z,1004.02
2023-03-12T05:31:10.833Z,1003.99
2023-03-12T05:32:10.746Z,1004.04
2023-03-12T05:33:10.722Z,1004.00
2023-03-12T05:34:10.705Z,1003.96
2023-03-12T05:35:10.733Z,1003.94
2023-03-12T05:36:10.778Z,1003.94
2023-03-12T05:37:10.697Z,1003.93
2023-03-12T05:38:10.697Z,1003.88
2023-03-12T05:39:10.680Z,1003.87
2023-03-12T05:40:10.683Z,1003.85
2023-03-12T05:41:10.684Z,1003.87
2023-03-12T05:42:10.673Z,1003.89
2023-03-12T05:43:10.665Z,1003.84
2023-03-12T05:44:10.672Z,1003.82
2023-03-12T05:45:10.667Z,1003.79
2023-03-12T05:46:10.725Z,1003.78
2023-03-12T05:47:10.646Z,1003.79
2023-03-12T05:48:10.643Z,1003.82
2023-03-12T05:49:10.652Z,1003.76
2023-03-12T05:50:10.716Z,1003.79
2023-03-12T05:51:10.657Z,1003.77
2023-03-12T05:52:10.624Z,1003.75
2023-03-12T05:53:10.671Z,1003.75
2023-03-12T05:54:10.627Z,1003.75
2023-03-12T05:55:10.631Z,1003.73
2023-03-12T05:56:10.629Z,1003.74
2023-03-12T05:57:10.631Z,1003.76
2023-03-12T05:58:10.594Z,1003.73
2023-03-12T05:59:10.626Z,1003.73
2023-03-12T06:00:10.601Z,1003.67
2023-03-12T06:01:10.602Z,1003.64
2023-03-12T06:02:10.680Z,1003.65
2023-03-12T06:03:10.653Z,1003.57
2023-03-12T06:04:10.603Z,1003.53
2023-03-12T06:05:10.593Z,1003.52
2023-03-12T06:06:10.580Z,1003.46
2023-03-12T06:07:10.569Z,1003.44
2023-03-12T06:08:10.576Z,1003.41
2023-03-12T06:09:10.568Z,1003.40
2023-03-12T06:10:10.569Z,1003.42
2023-03-12T06:11:10.536Z,1003.43
2023-03-12T06:12:10.554Z,1003.43
2023-03-12T06:13:10.541Z,1003.43
2023-03-12T06:14:10.554Z,1003.43
2023-03-12T06:15:10.562Z,1003.43
2023-03-12T06:16:10.560Z,1003.44
2023-03-12T06:17:10.507Z,1003.37
2023-03-12T06:18:10.513Z,1003.42
2023-03-12T06:19:10.529Z,1003.37
2023-03-12T06:20:10.500Z,1003.40
2023-03-12T06:21:10.511Z,1003.43
2023-03-12T06:22:10.493Z,1003.40
2023-03-12T06:23:10.527Z,1003.41
2023-03-12T06:24:10.505Z,1003.40
2023-03-12T06:25:10.479Z,1003.32
2023-03-12T06:26:10.482Z,1003.35
2023-03-12T06:27:10.469Z,1003.36
2023-03-12T06:28:10.481Z,1003.30
2023-03-12T06:29:10.479Z,1003.32
2023-03-12T06:30:10.465Z,1003.35
2023-03-12T06:31:10.530Z,1003.36
2023-03-12T06:32:10.451Z,1003.34
2023-03-12T06:33:10.442Z,1003.33
2023-03-12T06:34:10.464Z,1003.31
2023-03-12T06:35:10.437Z,1003.25
2023-03-12T06:36:10.430Z,1003.24
2023-03-12T06:37:10.434Z,1003.20
2023-03-12T06:38:10.468Z,1003.16
2023-03-12T06:39:10.452Z,1003.12
2023-03-12T06:40:10.449Z,1003.11
2023-03-12T06:41:10.423Z,1003.01
2023-03-12T06:42:10.395Z,1003.08
2023-03-12T06:43:10.416Z,1003.09
2023-03-12T06:44:10.402Z,1003.10
2023-03-12T06:45:10.396Z,1003.16
2023-03-12T06:46:10.417Z,1003.20
2023-03-12T06:47:10.389Z,1003.17
2023-03-12T06:48:10.393Z,1003.16
2023-03-12T06:49:10.396Z,1003.21
2023-03-12T06:50:10.382Z,1003.20
2023-03-12T06:51:10.393Z,1003.21
2023-03-12T06:52:10.377Z,1003.21
2023-03-12T06:53:10.359Z,1003.24
2023-03-12T06:54:10.369Z,1003.27
2023-03-12T06:55:10.378Z,1003.28
2023-03-12T06:56:10.358Z,1003.26
2023-03-12T06:57:10.385Z,1003.23
2023-03-12T06:58:10.338Z,1003.26
2023-03-12T06:59:10.369Z,1003.26
2023-03-12T07:00:10.337Z,1003.23
2023-03-12T07:01:10.319Z,1003.24
2023-03-12T07:02:10.356Z,1003.22
2023-03-12T07:03:10.318Z,1003.18
2023-03-12T07:04:10.333Z,1003.19
2023-03-12T07:05:10.366Z,1003.21
2023-03-12T07:06:10.318Z,1003.26
2023-03-12T07:07:10.302Z,1003.29
2023-03-12T07:08:10.290Z,1003.29
2023-03-12T07:09:10.303Z,1003.23
2023-03-12T07:10:10.369Z,1003.21
2023-03-12T07:11:10.322Z,1003.16
2023-03-12T07:12:10.281Z,1003.15
2023-03-12T07:13:10.284Z,1003.06
2023-03-12T07:14:10.280Z,1003.02
2023-03-12T07:15:10.278Z,1003.02
2023-03-12T07:16:10.301Z,1003.01
2023-03-12T07:17:10.284Z,1003.01
2023-03-12T07:18:10.263Z,1002.99
2023-03-12T07:19:10.268Z,1003.00
2023-03-12T07:20:10.259Z,1002.96
2023-03-12T07:21:10.251Z,1002.97
2023-03-12T07:22:10.251Z,1003.01
2023-03-12T07:23:10.244Z,1002.99
2023-03-12T07:24:10.238Z,1002.98
2023-03-12T07:25:10.241Z,1002.96
2023-03-12T07:26:10.251Z,1002.94
2023-03-12T07:27:10.283Z,1002.87
2023-03-12T07:28:10.224Z,1002.87
2023-03-12T07:29:10.219Z,1002.86
2023-03-12T07:30:10.228Z,1002.85
2023-03-12T07:31:10.230Z,1002.85
2023-03-12T07:32:10.222Z,1002.85
2023-03-12T07:33:10.386Z,1002.85
2023-03-12T07:34:10.386Z,1002.85
2023-03-12T07:35:10.201Z,1002.85
2023-03-12T07:36:10.333Z,1002.82
2023-03-12T07:37:10.193Z,1002.82
2023-03-12T07:38:10.249Z,1002.84
2023-03-12T07:39:10.180Z,1002.80
2023-03-12T07:40:10.183Z,1002.83
2023-03-12T07:41:10.261Z,1002.83
2023-03-12T07:42:10.236Z,1002.77
2023-03-12T07:43:10.184Z,1002.78
2023-03-12T07:44:10.212Z,1002.77
2023-03-12T07:45:10.284Z,1002.76
2023-03-12T07:46:10.184Z,1002.75
2023-03-12T07:47:23.042Z,1002.76
2023-03-12T07:48:10.325Z,1002.73
2023-03-12T07:49:10.241Z,1002.73
2023-03-12T07:51:43.183Z,1002.75
2023-03-12T07:52:43.180Z,1002.77
2023-03-12T07:53:43.201Z,1002.76
2023-03-12T07:54:43.309Z,1002.77
2023-03-12T07:55:43.294Z,1002.78
2023-03-12T07:56:43.306Z,1002.77
2023-03-12T07:57:43.256Z,1002.75
2023-03-12T07:58:43.409Z,1002.75
2023-03-12T07:59:43.186Z,1002.75
2023-03-12T08:00:43.157Z,1002.74
2023-03-12T08:01:45.658Z,1002.76
2023-03-12T08:02:43.349Z,1002.77
2023-03-12T08:03:43.499Z,1002.79
2023-03-12T08:04:43.181Z,1002.80
2023-03-12T08:05:43.300Z,1002.80
2023-03-12T08:06:43.180Z,1002.80
2023-03-12T08:07:43.126Z,1002.84
2023-03-12T08:08:43.169Z,1002.86
2023-03-12T08:09:43.323Z,1002.87
2023-03-12T08:10:43.108Z,1002.90
2023-03-12T08:11:43.199Z,1002.88
2023-03-12T08:12:43.105Z,1002.89
2023-03-12T08:13:43.124Z,1002.89
2023-03-12T08:14:43.229Z,1002.85
2023-03-12T08:15:43.097Z,1002.87
2023-03-12T08:16:43.150Z,1002.84
2023-03-12T08:17:43.094Z,1002.85
2023-03-12T08:18:43.176Z,1002.88
2023-03-12T08:19:43.095Z,1002.89
2023-03-12T08:20:43.088Z,1002.90
2023-03-12T08:21:43.066Z,1002.95
2023-03-12T08:22:43.065Z,1002.95
2023-03-12T08:23:43.077Z,1002.98
2023-03-12T08:24:43.058Z,1002.97
2023-03-12T08:25:43.093Z,1003.00
2023-03-12T08:26:43.049Z,1003.05
2023-03-12T08:27:43.057Z,1003.08
2023-03-12T08:28:43.059Z,1003.08
2023-03-12T08:29:43.048Z,1003.11
2023-03-12T08:30:43.055Z,1003.12
2023-03-12T08:31:57.387Z,1003.15
2023-03-12T08:32:43.054Z,1003.14
2023-03-12T08:33:43.044Z,1003.11
2023-03-12T08:34:43.020Z,1003.12
2023-03-12T08:35:43.086Z,1003.12
2023-03-12T08:36:43.012Z,1003.10
2023-03-12T08:37:43.016Z,1003.07
2023-03-12T08:38:43.025Z,1003.07
2023-03-12T08:39:43.006Z,1003.03
2023-03-12T08:40:43.000Z,1002.98
2023-03-12T08:41:42.997Z,1002.94
2023-03-12T08:42:42.994Z,1002.95
2023-03-12T08:43:43.008Z,1002.95
2023-03-12T08:44:43.004Z,1002.96
2023-03-12T08:45:43.008Z,1002.91
2023-03-12T08:46:42.999Z,1002.90
2023-03-12T08:47:42.984Z,1002.90
2023-03-12T08:48:42.983Z,1002.92
2023-03-12T08:49:42.977Z,1002.90
2023-03-12T08:50:43.003Z,1002.93
2023-03-12T08:51:42.970Z,1002.97
2023-03-12T08:52:42.962Z,1002.93
2023-03-12T08:53:42.979Z,1002.93
2023-03-12T08:54:42.975Z,1002.85
2023-03-12T08:55:42.954Z,1002.80
2023-03-12T08:56:42.945Z,1002.82
2023-03-12T08:57:42.985Z,1002.77
2023-03-12T08:58:42.953Z,1002.79
2023-03-12T08:59:42.938Z,1002.79
2023-03-12T09:00:43.993Z,1002.76
2023-03-12T09:01:43.905Z,1002.76
2023-03-12T09:02:42.998Z,1002.80
2023-03-12T09:03:42.928Z,1002.76
2023-03-12T09:04:43.028Z,1002.72
2023-03-12T09:05:42.936Z,1002.71
2023-03-12T09:06:42.949Z,1002.66
2023-03-12T09:07:42.907Z,1002.62
2023-03-12T09:08:42.917Z,1002.64
2023-03-12T09:09:42.985Z,1002.58
2023-03-12T09:10:42.928Z,1002.57
2023-03-12T09:11:42.902Z,1002.56
2023-03-12T09:12:42.920Z,1002.58
2023-03-12T09:14:08.179Z,1002.54
2023-03-12T09:15:02.375Z,1002.49
2023-03-12T09:15:42.884Z,1002.47
2023-03-12T09:16:42.994Z,1002.48
2023-03-12T09:17:42.887Z,1002.44
2023-03-12T09:18:43.018Z,1002.50
2023-03-12T09:19:42.936Z,1002.48
2023-03-12T09:20:42.880Z,1002.54
2023-03-12T09:21:42.881Z,1002.60
2023-03-12T09:22:42.873Z,1002.59
2023-03-12T09:23:42.907Z,1002.58
2023-03-12T09:24:42.866Z,1002.60
2023-03-12T09:25:42.864Z,1002.57
2023-03-12T09:26:42.846Z,1002.59
2023-03-12T09:27:42.834Z,1002.59
2023-03-12T09:28:42.853Z,1002.54
2023-03-12T09:29:58.844Z,1002.53
2023-03-12T09:30:42.891Z,1002.52
2023-03-12T09:31:42.839Z,1002.49
2023-03-12T09:32:42.850Z,1002.42
2023-03-12T09:33:42.822Z,1002.42
2023-03-12T09:34:42.867Z,1002.40
2023-03-12T09:35:42.885Z,1002.34
2023-03-12T09:36:42.844Z,1002.27
2023-03-12T09:37:42.809Z,1002.29
2023-03-12T09:38:42.805Z,1002.27
2023-03-12T09:39:42.812Z,1002.27
2023-03-12T09:40:42.810Z,1002.25
2023-03-12T09:41:42.813Z,1002.27
2023-03-12T09:42:42.792Z,1002.28
2023-03-12T09:43:42.801Z,1002.28
2023-03-12T09:44:42.792Z,1002.29
2023-03-12T09:45:42.801Z,1002.29
2023-03-12T09:46:42.796Z,1002.26
2023-03-12T09:47:42.784Z,1002.24
2023-03-12T09:48:42.776Z,1002.21
2023-03-12T09:49:42.778Z,1002.19
2023-03-12T09:50:42.774Z,1002.17
2023-03-12T09:51:42.758Z,1002.17
2023-03-12T09:52:42.771Z,1002.15
2023-03-12T09:53:42.759Z,1002.18
2023-03-12T09:54:42.756Z,1002.15
2023-03-12T09:55:42.750Z,1002.13
2023-03-12T09:56:42.761Z,1002.14
2023-03-12T09:57:42.778Z,1002.13
2023-03-12T09:58:42.742Z,1002.07
2023-03-12T09:59:42.749Z,1002.06
2023-03-12T10:00:42.749Z,1002.00
2023-03-12T10:01:42.747Z,1002.01
2023-03-12T10:13:20.010Z,1001.84
2023-03-12T10:14:23.839Z,1001.82
2023-03-12T10:15:19.904Z,1001.80
2023-03-12T10:16:19.958Z,1001.86
2023-03-12T10:17:19.891Z,1001.86
2023-03-12T10:18:20.015Z,1001.90
2023-03-12T10:19:19.889Z,1001.88
2023-03-12T10:20:19.879Z,1001.87
2023-03-12T10:21:19.884Z,1001.85
2023-03-12T10:22:19.866Z,1001.88
2023-03-12T10:23:19.890Z,1001.85
2023-03-12T10:24:19.856Z,1001.86
2023-03-12T10:25:19.867Z,1001.86
2023-03-12T10:26:19.851Z,1001.81
2023-03-12T10:27:19.848Z,1001.80
2023-03-12T10:28:19.864Z,1001.81
2023-03-12T10:29:19.880Z,1001.82
2023-03-12T10:30:19.843Z,1001.80
2023-03-12T10:31:19.891Z,1001.80
2023-03-12T10:32:19.880Z,1001.76
2023-03-12T10:33:19.816Z,1001.75
2023-03-12T10:34:19.880Z,1001.74
2023-03-12T10:35:21.769Z,1001.72
2023-03-12T10:36:19.827Z,1001.69
2023-03-12T10:37:19.816Z,1001.72
2023-03-12T10:38:19.807Z,1001.76
2023-03-12T10:39:19.858Z,1001.75
2023-03-12T10:40:19.827Z,1001.73
2023-03-12T10:41:19.910Z,1001.72
2023-03-12T10:42:19.796Z,1001.72
2023-03-12T10:43:19.791Z,1001.71
2023-03-12T10:44:19.793Z,1001.79
2023-03-12T10:45:19.805Z,1001.77
2023-03-12T10:46:19.842Z,1001.79
2023-03-12T10:47:19.779Z,1001.73
2023-03-12T10:48:19.773Z,1001.77
2023-03-12T10:49:19.767Z,1001.76
2023-03-12T10:50:19.768Z,1001.72
2023-03-12T10:51:19.779Z,1001.71
2023-03-12T10:52:19.782Z,1001.73
2023-03-12T10:53:19.760Z,1001.73
2023-03-12T10:54:19.798Z,1001.74
2023-03-12T10:55:19.758Z,1001.71
2023-03-12T10:56:19.759Z,1001.71
2023-03-12T10:57:19.742Z,1001.69
2023-03-12T10:58:19.742Z,1001.73
2023-03-12T10:59:19.740Z,1001.74
2023-03-12T11:00:19.739Z,1001.72
2023-03-12T11:01:19.882Z,1001.71
2023-03-12T11:02:20.683Z,1001.69
2023-03-12T11:03:19.725Z,1001.67
2023-03-12T11:04:19.753Z,1001.62
2023-03-12T11:05:19.758Z,1001.67
2023-03-12T11:06:19.763Z,1001.61
2023-03-12T11:07:19.705Z,1001.54
2023-03-12T11:08:19.701Z,1001.56
2023-03-12T11:09:19.729Z,1001.51
2023-03-12T11:10:19.717Z,1001.47
2023-03-12T11:11:19.732Z,1001.44
2023-03-12T11:12:19.792Z,1001.45
2023-03-12T11:13:19.683Z,1001.42
2023-03-12T11:14:19.716Z,1001.38
2023-03-12T11:15:19.673Z,1001.38
2023-03-12T11:16:19.715Z,1001.41
2023-03-12T11:17:19.733Z,1001.42
2023-03-12T11:18:19.665Z,1001.44
2023-03-12T11:20:19.664Z,1001.46
2023-03-12T11:21:19.708Z,1001.46
2023-03-12T11:22:19.680Z,1001.42
2023-03-12T11:23:19.680Z,1001.41
2023-03-12T11:24:19.650Z,1001.42
2023-03-12T11:25:19.656Z,1001.41
2023-03-12T11:26:19.643Z,1001.42
2023-03-12T11:27:19.661Z,1001.45
2023-03-12T11:28:19.665Z,1001.40
2023-03-12T11:29:19.765Z,1001.36
2023-03-12T11:30:19.674Z,1001.37
2023-03-12T11:31:19.804Z,1001.32
2023-03-12T11:32:19.682Z,1001.32
2023-03-12T11:33:19.646Z,1001.37
2023-03-12T11:34:19.626Z,1001.35
2023-03-12T11:35:19.624Z,1001.35
2023-03-12T11:36:19.623Z,1001.37
2023-03-12T11:37:19.640Z,1001.37
2023-03-12T11:38:19.624Z,1001.33
2023-03-12T11:39:19.604Z,1001.31
2023-03-12T11:40:19.605Z,1001.26
2023-03-12T11:41:19.611Z,1001.21
2023-03-12T11:42:19.584Z,1001.26
2023-03-12T11:43:32.419Z,1001.22
2023-03-12T11:44:19.602Z,1001.23
2023-03-12T11:45:19.582Z,1001.24
2023-03-12T11:46:19.645Z,1001.22
2023-03-12T11:47:19.590Z,1001.22
2023-03-12T11:48:19.595Z,1001.23
2023-03-12T11:49:19.575Z,1001.21
2023-03-12T11:50:19.557Z,1001.17
2023-03-12T11:51:19.689Z,1001.11
2023-03-12T11:52:19.561Z,1001.09
2023-03-12T11:53:19.582Z,1001.07
2023-03-12T11:54:19.549Z,1001.03
2023-03-12T11:55:19.536Z,1000.98
2023-03-12T11:56:19.555Z,1000.92
2023-03-12T11:57:19.538Z,1000.84
2023-03-12T11:58:19.530Z,1000.79
2023-03-12T11:59:19.622Z,1000.78
2023-03-12T12:00:19.574Z,1000.79
2023-03-12T12:01:19.545Z,1000.82
2023-03-12T12:02:19.605Z,1000.84
2023-03-12T12:03:19.557Z,1000.89
2023-03-12T12:04:19.574Z,1000.89
2023-03-12T12:05:19.537Z,1000.90
2023-03-12T12:06:19.497Z,1000.90
2023-03-12T12:07:19.511Z,1000.85
2023-03-12T12:08:19.510Z,1000.84
2023-03-12T12:09:19.514Z,1000.81
2023-03-12T12:10:19.510Z,1000.80
2023-03-12T12:11:19.494Z,1000.80
2023-03-12T12:12:19.481Z,1000.72
2023-03-12T12:13:19.482Z,1000.70
2023-03-12T12:14:19.511Z,1000.67
2023-03-12T12:15:19.472Z,1000.65
2023-03-12T12:16:19.506Z,1000.63
2023-03-12T12:17:19.504Z,1000.67
2023-03-12T12:18:19.483Z,1000.71
2023-03-12T12:19:19.482Z,1000.70
2023-03-12T12:20:19.544Z,1000.61
2023-03-12T12:21:19.470Z,1000.60
2023-03-12T12:22:19.482Z,1000.63
2023-03-12T12:23:19.450Z,1000.63
2023-03-12T12:24:19.453Z,1000.60
2023-03-12T12:25:19.465Z,1000.61
2023-03-12T12:26:19.462Z,1000.60
2023-03-12T12:27:19.434Z,1000.57
2023-03-12T12:28:19.438Z,1000.61
2023-03-12T12:29:19.439Z,1000.60
2023-03-12T12:30:19.431Z,1000.58
2023-03-12T12:31:19.477Z,1000.56
2023-03-12T12:32:19.458Z,1000.52
2023-03-12T12:33:19.435Z,1000.48
2023-03-12T12:34:19.422Z,1000.48
2023-03-12T12:35:19.420Z,1000.47
2023-03-12T12:36:19.433Z,1000.46
2023-03-12T12:37:19.428Z,1000.42
2023-03-12T12:38:19.402Z,1000.45
2023-03-12T12:39:19.404Z,1000.44
2023-03-12T12:40:19.387Z,1000.43
2023-03-12T12:41:19.383Z,1000.45
2023-03-12T12:42:19.379Z,1000.41
2023-03-12T12:43:19.400Z,1000.38
2023-03-12T12:44:19.384Z,1000.31
2023-03-12T12:45:19.383Z,1000.33
2023-03-12T12:46:19.461Z,1000.31
2023-03-12T12:47:19.357Z,1000.27
2023-03-12T12:48:19.365Z,1000.30
2023-03-12T12:49:19.371Z,1000.30
2023-03-12T12:50:19.357Z,1000.28
2023-03-12T12:51:19.348Z,1000.33
2023-03-12T12:52:19.351Z,1000.26
2023-03-12T12:53:19.352Z,1000.31
2023-03-12T12:54:19.371Z,1000.28
2023-03-12T12:55:19.348Z,1000.23
2023-03-12T12:56:19.333Z,1000.20
2023-03-12T12:57:19.325Z,1000.27
2023-03-12T12:58:19.326Z,1000.25
2023-03-12T12:59:19.340Z,1000.23
2023-03-12T13:00:19.318Z,1000.19
2023-03-12T13:01:19.393Z,1000.16
2023-03-12T13:02:19.323Z,1000.10
2023-03-12T13:03:19.345Z,1000.15
2023-03-12T13:04:19.415Z,1000.16
2023-03-12T13:05:19.329Z,1000.13
2023-03-12T13:06:19.298Z,1000.11
2023-03-12T13:07:19.287Z,1000.09
2023-03-12T13:08:19.314Z,1000.06
2023-03-12T13:09:19.300Z,1000.06
2023-03-12T13:11:20.841Z,1000.03
2023-03-12T13:13:52.293Z,1000.13
2023-03-12T13:14:52.278Z,1000.15
2023-03-12T13:15:52.355Z,1000.06
2023-03-12T13:16:52.271Z,1000.10
2023-03-12T13:17:52.276Z,1000.06
2023-03-12T13:18:52.272Z,1000.08
2023-03-12T13:20:00.642Z,1000.09
2023-03-12T13:20:52.288Z,1000.10
2023-03-12T13:21:52.256Z,1000.06
2023-03-12T13:22:52.256Z,1000.10
2023-03-12T13:23:52.255Z,1000.10
2023-03-12T13:24:52.274Z,1000.03
2023-03-12T13:25:52.244Z,999.96
2023-03-12T13:26:52.277Z,1000.05
2023-03-12T13:27:52.232Z,1000.03
2023-03-12T13:28:56.854Z,1000.01
2023-03-12T13:29:52.255Z,999.97
2023-03-12T13:30:52.231Z,999.95
2023-03-12T13:31:52.221Z,999.96
2023-03-12T13:32:52.314Z,999.94
2023-03-12T13:33:52.221Z,999.97
2023-03-12T13:34:52.334Z,999.97
2023-03-12T13:35:52.260Z,999.93
2023-03-12T13:36:52.221Z,999.94
2023-03-12T13:37:52.242Z,999.94
2023-03-12T13:38:52.194Z,999.91
2023-03-12T13:39:52.211Z,999.87
2023-03-12T13:40:52.232Z,999.90
2023-03-12T13:41:52.221Z,999.87
2023-03-12T13:42:52.183Z,999.85
2023-03-12T13:43:52.197Z,999.80
2023-03-12T13:44:52.242Z,999.89
2023-03-12T13:45:52.183Z,999.86
2023-03-12T13:46:52.198Z,999.89
2023-03-12T13:47:52.168Z,999.84
2023-03-12T13:48:52.156Z,999.86
2023-03-12T13:49:52.179Z,999.87
2023-03-12T13:50:52.188Z,999.85
2023-03-12T13:51:52.167Z,999.87
2023-03-12T13:52:52.148Z,999.82
2023-03-12T13:53:52.147Z,999.73
2023-03-12T13:54:52.150Z,999.69
2023-03-12T13:55:52.166Z,999.64
2023-03-12T13:56:52.175Z,999.61
2023-03-12T13:57:52.137Z,999.57
2023-03-12T13:58:52.133Z,999.53
2023-03-12T13:59:52.123Z,999.52
2023-03-12T14:00:52.129Z,999.50
2023-03-12T14:01:52.286Z,999.46
2023-03-12T14:02:52.129Z,999.48
2023-03-12T14:03:52.121Z,999.46
2023-03-12T14:04:52.195Z,999.52
2023-03-12T14:05:52.122Z,999.52
2023-03-12T14:06:52.138Z,999.62
2023-03-12T14:08:52.101Z,999.67
2023-03-12T14:09:52.105Z,999.76
2023-03-12T14:10:52.094Z,999.81
2023-03-12T14:11:52.118Z,999.84
2023-03-12T14:12:52.145Z,999.86
2023-03-12T14:13:52.163Z,999.85
2023-03-12T14:14:52.081Z,999.89
2023-03-12T14:15:52.120Z,999.92
2023-03-12T14:16:52.094Z,999.97
2023-03-12T14:17:52.105Z,999.95
2023-03-12T14:18:52.106Z,1000.01
2023-03-12T14:19:52.073Z,999.97
2023-03-12T14:20:52.070Z,999.97
2023-03-12T14:21:52.130Z,999.99
2023-03-12T14:22:52.071Z,1000.01
2023-03-12T14:23:52.070Z,1000.00
2023-03-12T14:24:52.049Z,1000.00
2023-03-12T14:25:52.059Z,999.98
2023-03-12T14:26:52.055Z,1000.01
2023-03-12T14:27:52.083Z,1000.02
2023-03-12T14:28:52.090Z,1000.02
2023-03-12T14:29:52.066Z,999.96
2023-03-12T14:30:52.095Z,1000.01
2023-03-12T14:31:52.037Z,999.98
2023-03-12T14:32:52.162Z,1000.03
2023-03-12T14:33:52.051Z,1000.10
2023-03-12T14:34:52.027Z,1000.07
2023-03-12T14:35:52.098Z,1000.10
2023-03-12T14:36:52.027Z,1000.08
2023-03-12T14:37:52.030Z,1000.03
2023-03-12T14:38:52.197Z,1000.00
2023-03-12T14:39:52.019Z,1000.01
2023-03-12T14:40:52.010Z,999.98
2023-03-12T14:41:52.006Z,1000.00
2023-03-12T14:42:51.999Z,999.97
2023-03-12T14:43:52.026Z,999.98
2023-03-12T14:44:52.061Z,999.98
2023-03-12T14:45:52.021Z,1000.01
2023-03-12T14:46:52.092Z,1000.01
2023-03-12T14:47:51.998Z,1000.02
2023-03-12T14:48:52.006Z,1000.04
2023-03-12T14:49:51.989Z,1000.06
2023-03-12T14:50:52.009Z,1000.10
2023-03-12T14:51:51.982Z,1000.08
2023-03-12T14:52:51.969Z,1000.08
2023-03-12T14:53:52.184Z,1000.10
2023-03-12T14:54:51.986Z,1000.10
2023-03-12T14:55:51.995Z,1000.09
2023-03-12T14:56:51.957Z,1000.09
2023-03-12T14:57:51.956Z,1000.02
2023-03-12T14:58:51.959Z,1000.05
2023-03-12T14:59:51.972Z,1000.01
2023-03-12T15:00:52.013Z,1000.02
2023-03-12T15:01:52.028Z,1000.01
2023-03-12T15:02:51.941Z,1000.04
2023-03-12T15:03:51.949Z,1000.06
2023-03-12T15:04:54.231Z,1000.01
2023-03-12T15:05:51.945Z,999.99
2023-03-12T15:06:51.924Z,1000.00
2023-03-12T15:07:51.929Z,1000.00
2023-03-12T15:08:51.936Z,999.95
2023-03-12T15:09:51.940Z,999.91
2023-03-12T15:10:51.930Z,999.91
2023-03-12T15:11:51.913Z,999.89
2023-03-12T15:12:51.905Z,999.89
2023-03-12T15:13:51.907Z,999.82
2023-03-12T15:14:51.913Z,999.79
2023-03-12T15:15:51.956Z,999.81
2023-03-12T15:16:51.912Z,999.77
2023-03-12T15:17:51.894Z,999.79
2023-03-12T15:18:51.880Z,999.81
2023-03-12T15:19:51.890Z,999.83
2023-03-12T15:20:51.893Z,999.91
2023-03-12T15:21:51.898Z,999.95
2023-03-12T15:22:51.990Z,999.91
2023-03-12T15:23:51.883Z,999.81
2023-03-12T15:24:51.861Z,999.78
2023-03-12T15:25:51.868Z,999.79
2023-03-12T15:26:51.869Z,999.84
2023-03-12T15:27:51.860Z,999.89
2023-03-12T15:28:51.868Z,999.85
2023-03-12T15:29:51.854Z,999.82
2023-03-12T15:30:51.920Z,999.82
2023-03-12T15:31:51.848Z,999.78
2023-03-12T15:32:51.904Z,999.77
2023-03-12T15:33:51.834Z,999.84
2023-03-12T15:34:51.834Z,999.80
2023-03-12T15:35:51.909Z,999.84
2023-03-12T15:36:51.868Z,999.86
2023-03-12T15:37:51.829Z,999.90
2023-03-12T15:38:51.853Z,999.88
2023-03-12T15:39:51.915Z,999.85
2023-03-12T15:40:51.829Z,999.84
2023-03-12T15:41:51.852Z,999.91
2023-03-12T15:42:51.809Z,999.83
2023-03-12T15:43:51.799Z,999.87
2023-03-12T15:44:51.824Z,999.83
2023-03-12T15:45:51.866Z,999.86
2023-03-12T15:46:51.912Z,999.87
2023-03-12T15:47:51.784Z,999.86
2023-03-12T15:48:51.810Z,999.89
2023-03-12T15:49:53.138Z,999.89
2023-03-12T15:50:51.791Z,999.90
2023-03-12T15:51:51.765Z,999.84
2023-03-12T15:52:51.767Z,999.89
2023-03-12T15:53:51.763Z,999.91
2023-03-12T15:54:51.769Z,999.91
2023-03-12T15:55:51.785Z,999.86
2023-03-12T15:56:51.760Z,999.80
2023-03-12T15:57:51.761Z,999.79
2023-03-12T15:58:51.753Z,999.77
2023-03-12T15:59:51.737Z,999.79
2023-03-12T16:00:51.790Z,999.74
2023-03-12T16:12:27.843Z,999.74
2023-03-12T16:13:27.777Z,999.67
2023-03-12T16:14:27.873Z,999.70
2023-03-12T16:15:27.794Z,999.71
2023-03-12T16:16:27.838Z,999.73
2023-03-12T16:17:27.747Z,999.73
2023-03-12T16:18:27.744Z,999.70
2023-03-12T16:19:27.949Z,999.76
2023-03-12T16:20:27.767Z,999.72
2023-03-12T16:21:27.741Z,999.67
2023-03-12T16:22:27.738Z,999.73
2023-03-12T16:23:27.739Z,999.76
2023-03-12T16:24:27.749Z,999.81
2023-03-12T16:25:27.724Z,999.79
2023-03-12T16:26:27.722Z,999.80
2023-03-12T16:27:32.741Z,999.85
2023-03-12T16:28:27.736Z,999.84
2023-03-12T16:29:27.729Z,999.85
2023-03-12T16:30:27.715Z,999.82
2023-03-12T16:31:27.742Z,999.79
2023-03-12T16:32:27.730Z,999.80
2023-03-12T16:33:27.698Z,999.80
2023-03-12T16:34:27.679Z,999.82
2023-03-12T16:35:27.771Z,999.81